Main page
METAR-TAF:

METAR-TAF

Airports :

Oban, Scotland

Oban Airport

latitude: 56-27-49N, longitude: 5-24-00W, elevation: 7 m

Current weather observation

The report was made 13 hours and 2 minutes ago, at 15:50 UTC
Wind 2 kt from variable directions
Temperature 12°C
Humidity 82%
Pressure 987 hPa
Visibility: 8000 m
Few clouds at a height of 1400 ft
Scattered clouds at a height of 2700 ft
Broken clouds at a height of 3500 ft
light rain showers

METAR: EGEO 211550Z VRB02KT 8000 -SHRA FEW014 SCT027 BKN035 12/09 Q0987

Time: 05:52 (04:52 UTC)

Forecast

The report was made 14 hours and 50 minutes ago, at 14:02 UTC
Forecast valid from 21 at 15 UTC to 21 at 17 UTC
Wind 5 kt from the Northeast
Visibility 10 km or more
Few clouds at a height of 1500 ft
Scattered clouds at a height of 3000 ft
Temporary
from 21 at 15 UTC to 21 at 17 UTC
Visibility: 7000 m
rain showers

TAF: EGEO 211402Z 2115/2117 05005KT 9999 FEW015 SCT030 TEMPO 2115/2117 7000 SHRA

Weather observations and forecasts of more than 4000 airports (METAR and TAF reports).

The available stations are represented by yellow and red dots on the map.

Hover mouse over dot to see the name of the station.

Then click to see weather observations and forecasts.

To change the map : click on the green buttons with a black cross to zoom in, on the green button with a dash to zoom out, or on the green arrows for adjacent maps.


METAR-TAF: